createdAt,value
2023-04-16T00:22:11.221Z,5.87
2023-04-16T01:03:15.366Z,5.69
2023-04-16T01:35:56.751Z,6.01
2023-04-16T02:26:33.151Z,5.23
2023-04-16T03:26:38.081Z,4.93
2023-04-16T04:32:08.691Z,5.91
2023-04-16T05:01:28.288Z,6.17
2023-04-16T06:29:36.991Z,8.20
2023-04-16T06:32:49.429Z,8.61
2023-04-16T06:36:24.851Z,8.70
2023-04-16T06:40:02.401Z,9.00
2023-04-16T06:43:45.125Z,8.91
2023-04-16T06:47:19.796Z,9.21
2023-04-16T06:50:43.896Z,9.35
2023-04-16T06:54:31.800Z,9.48
2023-04-16T06:58:16.975Z,9.60
2023-04-16T07:01:58.347Z,10.22
2023-04-16T07:05:41.851Z,10.27
2023-04-16T07:20:28.864Z,11.32
2023-04-16T07:47:05.587Z,11.33
2023-04-16T07:50:45.278Z,11.44
2023-04-16T07:58:00.854Z,11.63
2023-04-16T08:01:39.076Z,11.76
2023-04-16T08:05:13.823Z,12.12
2023-04-16T08:08:59.651Z,12.52
2023-04-16T08:12:21.594Z,12.72
2023-04-16T08:16:10.042Z,12.93
2023-04-16T08:19:47.036Z,12.73
2023-04-16T08:22:51.342Z,13.31
2023-04-16T08:26:07.960Z,13.67
2023-04-16T08:58:40.378Z,13.96
2023-04-16T09:02:15.685Z,14.66
2023-04-16T09:05:37.425Z,13.98
2023-04-16T09:20:12.901Z,14.19
2023-04-16T09:27:53.639Z,14.27
2023-04-16T09:31:19.471Z,14.09
2023-04-16T10:18:21.626Z,17.47
2023-04-16T10:21:59.444Z,17.88
2023-04-16T10:25:39.624Z,17.57
2023-04-16T10:29:22.247Z,18.53
2023-04-16T10:33:03.157Z,18.36
2023-04-16T10:36:38.187Z,18.05
2023-04-16T10:40:02.184Z,18.38
2023-04-16T10:43:25.108Z,18.57
2023-04-16T10:46:55.147Z,19.28
2023-04-16T10:50:43.709Z,19.56
2023-04-16T10:54:09.265Z,20.06
2023-04-16T10:57:33.592Z,19.57
2023-04-16T11:01:17.236Z,20.09
2023-04-16T11:04:58.933Z,20.14
2023-04-16T11:12:10.134Z,19.12
2023-04-16T11:15:46.279Z,18.79
2023-04-16T11:19:26.233Z,18.43
2023-04-16T11:23:00.627Z,18.48
2023-04-16T11:30:53.479Z,18.00
2023-04-16T11:34:34.749Z,17.85
2023-04-16T11:42:07.623Z,17.77
2023-04-16T11:46:12.880Z,17.60
2023-04-16T11:49:30.556Z,17.54
2023-04-16T11:53:07.086Z,17.59
2023-04-16T11:56:51.366Z,17.60
2023-04-16T12:00:45.610Z,17.67
2023-04-16T12:04:25.144Z,17.92
2023-04-16T12:07:49.318Z,17.90
2023-04-16T12:30:08.188Z,18.12
2023-04-16T12:34:02.530Z,17.88
2023-04-16T12:49:04.608Z,18.04
2023-04-16T13:22:52.052Z,18.69
2023-04-16T13:30:22.165Z,19.17
2023-04-16T13:41:27.512Z,19.44
2023-04-16T13:44:55.440Z,18.89
2023-04-16T13:48:31.264Z,18.98
2023-04-16T13:52:02.903Z,19.10
2023-04-16T13:55:52.008Z,18.93
2023-04-16T13:59:14.708Z,19.07
2023-04-16T14:10:09.486Z,19.06
2023-04-16T14:20:42.409Z,18.83
2023-04-16T14:24:06.100Z,18.61
2023-04-16T14:27:49.335Z,18.97
2023-04-16T14:38:59.260Z,18.00
2023-04-16T14:42:25.978Z,17.36
2023-04-16T14:46:37.955Z,17.54
2023-04-16T14:50:17.673Z,17.67
2023-04-16T14:54:05.416Z,17.49
2023-04-16T14:57:35.816Z,17.07
2023-04-16T15:01:26.774Z,16.88
2023-04-16T15:05:13.393Z,16.71
2023-04-16T15:12:29.455Z,16.80
2023-04-16T15:16:01.698Z,17.02
2023-04-16T15:19:24.239Z,16.94
2023-04-16T15:30:38.724Z,16.74
2023-04-16T15:38:54.404Z,16.55
2023-04-16T15:42:55.343Z,16.65
2023-04-16T15:46:30.221Z,16.74
2023-04-16T15:50:23.404Z,16.58
2023-04-16T15:57:41.510Z,16.16
2023-04-16T16:01:08.695Z,16.14
2023-04-16T16:40:50.891Z,15.71
2023-04-16T16:55:19.493Z,15.68
2023-04-16T16:58:54.229Z,15.68
2023-04-16T17:02:41.226Z,15.65
2023-04-16T17:09:56.201Z,15.51
2023-04-16T17:13:44.081Z,15.59
2023-04-16T17:21:04.075Z,15.37
2023-04-16T17:51:12.070Z,14.42
2023-04-16T17:55:21.179Z,14.40
2023-04-16T18:06:29.706Z,14.23
2023-04-16T18:18:14.943Z,14.04
2023-04-16T18:21:39.749Z,13.96
2023-04-16T18:25:08.123Z,13.85
2023-04-16T18:28:16.007Z,13.61
2023-04-16T18:32:13.357Z,13.54
2023-04-16T18:35:31.835Z,13.44
2023-04-16T18:39:10.075Z,13.51
2023-04-16T18:42:50.771Z,13.48
2023-04-16T18:50:28.045Z,13.43
2023-04-16T18:53:52.557Z,13.40
2023-04-16T18:57:08.478Z,13.34
2023-04-16T19:04:18.426Z,13.30
2023-04-16T19:07:22.597Z,13.18
2023-04-16T19:10:26.716Z,13.22
2023-04-16T19:14:09.705Z,13.24
2023-04-16T19:17:31.393Z,13.24
2023-04-16T19:24:44.197Z,13.11
2023-04-16T19:28:07.383Z,13.11
2023-04-16T19:35:18.941Z,13.14
2023-04-16T19:38:22.827Z,13.07
2023-04-16T19:42:05.378Z,12.97
2023-04-16T19:45:53.531Z,12.94
2023-04-16T19:49:29.612Z,12.92
2023-04-16T19:52:56.066Z,12.98
2023-04-16T19:56:17.250Z,12.92
2023-04-16T19:59:50.696Z,12.91
2023-04-16T20:02:59.661Z,12.85
2023-04-16T20:06:40.817Z,12.85
2023-04-16T20:10:18.285Z,12.81
2023-04-16T20:13:47.993Z,12.73
2023-04-16T20:17:12.231Z,12.69
2023-04-16T20:20:19.718Z,12.70
2023-04-16T20:23:43.161Z,12.69
2023-04-16T20:27:09.964Z,12.63
2023-04-16T20:30:43.651Z,12.69
2023-04-16T20:34:04.496Z,12.63
2023-04-16T20:37:20.161Z,12.68
2023-04-16T20:40:45.138Z,12.70
2023-04-16T20:44:20.657Z,12.74
2023-04-16T20:48:04.873Z,12.73
2023-04-16T20:51:09.766Z,12.81
2023-04-16T20:54:52.115Z,12.74
2023-04-16T20:58:33.960Z,12.75
2023-04-16T21:01:58.866Z,12.71
2023-04-16T21:05:05.582Z,12.84
2023-04-16T21:08:30.839Z,12.85
2023-04-16T21:11:36.607Z,12.89
2023-04-16T21:15:18.865Z,12.87
2023-04-16T21:18:21.531Z,12.99
2023-04-16T21:21:52.244Z,12.89
2023-04-16T21:29:52.183Z,12.82
2023-04-16T21:33:30.565Z,12.83
2023-04-16T21:37:46.417Z,12.96
2023-04-16T21:41:11.089Z,12.93
2023-04-16T21:44:52.924Z,12.88
2023-04-16T21:48:17.399Z,12.78
2023-04-16T21:52:03.087Z,12.79
2023-04-16T21:55:08.846Z,12.74
2023-04-16T21:58:47.485Z,12.62
2023-04-16T22:02:18.348Z,12.57
2023-04-16T22:06:04.552Z,12.41
2023-04-16T22:09:33.810Z,12.48
2023-04-16T22:13:18.187Z,12.40
2023-04-16T22:16:56.636Z,12.35
2023-04-16T22:20:39.399Z,12.37
2023-04-16T22:24:11.028Z,12.38
2023-04-16T22:27:39.177Z,12.37
2023-04-16T22:31:15.215Z,12.28
2023-04-16T22:34:56.472Z,12.15
2023-04-16T22:38:08.005Z,12.13
2023-04-16T22:41:38.745Z,12.06
2023-04-16T22:45:00.281Z,12.09
2023-04-16T22:48:26.620Z,12.06
2023-04-16T22:51:57.551Z,11.98
2023-04-16T22:55:22.909Z,12.02
2023-04-16T22:58:48.835Z,12.00
2023-04-16T23:02:13.118Z,12.04
2023-04-16T23:05:42.505Z,12.06
2023-04-16T23:09:15.678Z,12.04
2023-04-16T23:12:30.500Z,12.04
2023-04-16T23:16:03.123Z,12.14
2023-04-16T23:19:19.934Z,12.17
2023-04-16T23:22:47.398Z,12.19
2023-04-16T23:26:04.674Z,12.29
2023-04-16T23:29:33.946Z,12.22
2023-04-16T23:32:48.824Z,12.23
2023-04-16T23:36:15.985Z,12.25
2023-04-16T23:39:50.960Z,12.31
2023-04-16T23:43:15.609Z,12.16
2023-04-16T23:46:50.839Z,12.12
2023-04-16T23:50:06.263Z,12.22
2023-04-16T23:53:32.552Z,12.16
2023-04-16T23:56:59.827Z,12.20
